createdAt,value
2023-05-15T00:08:03.839Z,2.50
2023-05-15T00:16:26.874Z,2.40
2023-05-15T00:24:50.002Z,2.50
2023-05-15T00:33:13.029Z,2.60
2023-05-15T00:41:37.122Z,2.80
2023-05-15T00:50:01.944Z,2.90
2023-05-15T00:58:27.512Z,2.60
2023-05-15T01:06:53.530Z,2.50
2023-05-15T01:15:16.494Z,2.50
2023-05-15T01:24:00.192Z,2.90
2023-05-15T01:32:47.400Z,3.00
2023-05-15T01:41:31.885Z,2.90
2023-05-15T01:49:57.896Z,3.20
2023-05-15T01:58:21.609Z,3.00
2023-05-15T02:06:45.638Z,2.70
2023-05-15T02:15:10.512Z,2.70
2023-05-15T02:23:33.925Z,2.90
2023-05-15T02:32:05.032Z,3.20
2023-05-15T02:40:29.354Z,2.80
2023-05-15T02:48:53.658Z,2.40
2023-05-15T02:57:16.702Z,2.70
2023-05-15T03:05:39.694Z,2.80
2023-05-15T03:14:02.705Z,3.20
2023-05-15T03:22:25.984Z,2.40
2023-05-15T03:30:49.015Z,2.60
2023-05-15T03:39:11.904Z,2.50
2023-05-15T03:47:35.084Z,2.40
2023-05-15T03:55:58.074Z,3.20
2023-05-15T04:04:22.124Z,3.10
2023-05-15T04:12:45.186Z,2.80
2023-05-15T04:21:09.399Z,2.50
2023-05-15T04:29:32.396Z,2.80
2023-05-15T04:37:55.272Z,3.00
2023-05-15T04:46:18.223Z,3.10
2023-05-15T04:54:41.186Z,2.70
2023-05-15T05:03:04.953Z,2.90
2023-05-15T05:11:29.533Z,3.40
2023-05-15T05:19:52.405Z,3.30
2023-05-15T05:28:15.890Z,3.50
2023-05-15T05:36:38.785Z,4.00
2023-05-15T05:45:01.854Z,3.10
2023-05-15T05:53:24.838Z,3.60
2023-05-15T06:01:49.797Z,3.30
2023-05-15T06:10:14.004Z,3.30
2023-05-15T06:18:37.350Z,4.00
2023-05-15T06:27:01.107Z,3.20
2023-05-15T06:35:24.274Z,3.50
2023-05-15T06:43:47.335Z,3.90
2023-05-15T06:52:11.083Z,4.30
2023-05-15T07:00:34.111Z,4.90
2023-05-15T07:08:57.106Z,5.10
2023-05-15T07:17:20.157Z,4.50
2023-05-15T07:25:43.485Z,4.70
2023-05-15T07:34:07.163Z,5.50
2023-05-15T07:42:30.345Z,5.00
2023-05-15T07:50:54.025Z,6.80
2023-05-15T07:59:17.019Z,5.40
2023-05-15T08:07:41.270Z,6.00
2023-05-15T08:16:04.596Z,4.30
2023-05-15T08:24:27.649Z,4.20
2023-05-15T08:32:50.581Z,5.70
2023-05-15T08:41:41.006Z,5.40
2023-05-15T08:50:15.898Z,6.60
2023-05-15T08:58:39.146Z,4.50
2023-05-15T09:07:03.797Z,5.60
2023-05-15T09:15:28.224Z,5.40
2023-05-15T09:23:52.187Z,5.30
2023-05-15T09:32:18.695Z,5.30
2023-05-15T09:40:42.097Z,4.40
2023-05-15T09:49:05.060Z,5.30
2023-05-15T09:57:28.003Z,5.30
2023-05-15T10:05:59.240Z,5.30
2023-05-15T10:14:23.362Z,5.20
2023-05-15T10:22:48.654Z,5.90
2023-05-15T10:31:13.106Z,7.00
2023-05-15T10:39:41.264Z,5.80
2023-05-15T10:48:07.837Z,7.10
2023-05-15T10:56:32.829Z,5.90
2023-05-15T11:05:03.804Z,6.50
2023-05-15T11:13:27.181Z,6.60
2023-05-15T11:22:32.225Z,6.70
2023-05-15T11:31:01.079Z,6.20
2023-05-15T11:39:25.429Z,6.00
2023-05-15T11:47:48.413Z,6.40
2023-05-15T11:56:29.314Z,7.50
2023-05-15T12:04:52.390Z,6.00
2023-05-15T12:13:18.640Z,6.30
2023-05-15T12:21:46.954Z,5.50
2023-05-15T12:30:11.540Z,7.60
2023-05-15T12:38:38.163Z,6.40
2023-05-15T12:47:01.578Z,7.90
2023-05-15T12:55:36.104Z,7.00
2023-05-15T13:03:59.213Z,8.20
2023-05-15T13:12:23.895Z,7.70
2023-05-15T13:20:48.989Z,7.10
2023-05-15T13:29:12.608Z,7.80
2023-05-15T13:37:37.244Z,9.30
2023-05-15T13:46:00.672Z,8.60
2023-05-15T13:54:24.939Z,10.80
2023-05-15T14:02:48.109Z,8.60
2023-05-15T14:11:11.089Z,8.70
2023-05-15T14:19:34.618Z,9.60
2023-05-15T14:27:57.468Z,7.00
2023-05-15T14:36:20.432Z,8.20
2023-05-15T14:44:43.259Z,6.50
2023-05-15T14:53:06.118Z,9.50
2023-05-15T15:01:29.225Z,7.90
2023-05-15T15:09:52.121Z,7.20
2023-05-15T15:18:15.507Z,7.50
2023-05-15T15:26:38.503Z,7.40
2023-05-15T15:35:01.448Z,8.10
2023-05-15T15:43:24.369Z,6.60
2023-05-15T15:51:47.243Z,8.60
2023-05-15T16:00:10.613Z,6.70
2023-05-15T16:08:33.485Z,6.40
2023-05-15T16:16:56.695Z,7.10
2023-05-15T16:25:19.727Z,5.10
2023-05-15T16:33:43.665Z,5.20
2023-05-15T16:42:09.472Z,5.90
2023-05-15T16:50:35.375Z,4.80
2023-05-15T16:58:58.180Z,5.90
2023-05-15T17:07:21.015Z,6.60
2023-05-15T17:15:45.154Z,7.60
2023-05-15T17:24:08.887Z,6.20
2023-05-15T17:32:31.774Z,7.00
2023-05-15T17:40:55.608Z,5.40
2023-05-15T17:49:18.659Z,5.90
2023-05-15T17:57:41.551Z,8.20
2023-05-15T18:06:04.619Z,8.70
2023-05-15T18:14:27.455Z,7.90
2023-05-15T18:22:50.836Z,7.90
2023-05-15T18:31:13.957Z,8.70
2023-05-15T18:39:37.897Z,7.50
2023-05-15T18:48:01.362Z,8.50
2023-05-15T18:56:25.180Z,7.50
2023-05-15T19:04:48.160Z,8.80
2023-05-15T19:13:10.993Z,9.30
2023-05-15T19:21:33.885Z,7.00
2023-05-15T19:29:57.529Z,10.70
2023-05-15T19:38:20.653Z,6.90
2023-05-15T19:46:45.128Z,5.60
2023-05-15T19:55:08.632Z,6.80
2023-05-15T20:03:34.579Z,5.40
2023-05-15T20:11:57.815Z,7.50
2023-05-15T20:20:21.536Z,7.90
2023-05-15T20:28:45.400Z,7.70
2023-05-15T20:37:09.481Z,7.30
2023-05-15T20:45:32.492Z,7.00
2023-05-15T20:53:56.145Z,6.00
2023-05-15T21:02:19.082Z,6.10
2023-05-15T21:10:41.981Z,6.30
2023-05-15T21:19:05.056Z,6.60
2023-05-15T21:27:27.983Z,6.00
2023-05-15T21:35:51.610Z,8.30
2023-05-15T21:44:14.737Z,8.50
2023-05-15T21:52:37.729Z,9.10
2023-05-15T22:01:00.618Z,8.50
2023-05-15T22:09:23.668Z,9.30
2023-05-15T22:17:46.650Z,8.20
2023-05-15T22:26:09.687Z,10.30
2023-05-15T22:34:32.753Z,9.50
2023-05-15T22:43:13.085Z,8.30
2023-05-15T22:51:37.041Z,8.40
2023-05-15T22:59:59.957Z,9.80
2023-05-15T23:08:40.662Z,8.40
2023-05-15T23:17:04.325Z,8.30
2023-05-15T23:25:27.180Z,7.20
2023-05-15T23:33:50.696Z,7.20
2023-05-15T23:42:13.549Z,8.30
2023-05-15T23:50:36.707Z,7.60
2023-05-15T23:58:59.736Z,7.10
